Time,TemperatureF,DewpointF,PressureIn,WindDirection,WindDirectionDegrees,WindSpeedMPH,WindSpeedGustMPH,Humidity,HourlyPrecipIn,Conditions,Clouds,dailyrainin,SoftwareType,DateUTC
2013-01-14 00:02:00,62.2,58.7,30.15,SW,225,0.0,0.0,88,0.00,,,0.00,WeatherCatV1.12B45,2013-01-14 05:02:00,
2013-01-14 00:07:00,61.9,58.5,30.15,SW,225,0.0,0.0,88,0.00,,,0.00,WeatherCatV1.12B45,2013-01-14 05:07:00,
2013-01-14 00:12:00,61.9,58.3,30.15,SW,225,0.0,0.0,88,0.00,,,0.00,WeatherCatV1.12B45,2013-01-14 05:12:00,
2013-01-14 00:17:00,61.9,58.3,30.15,SW,225,0.0,0.0,88,0.00,,,0.00,WeatherCatV1.12B45,2013-01-14 05:17:00,
2013-01-14 00:22:00,61.9,58.7,30.15,SW,225,0.0,0.0,89,0.00,,,0.00,WeatherCatV1.12B45,2013-01-14 05:22:00,
2013-01-14 00:27:00,61.9,58.7,30.15,SW,225,0.0,0.0,89,0.00,,,0.00,WeatherCatV1.12B45,2013-01-14 05:27:00,
2013-01-14 00:32:00,61.7,58.5,30.15,SW,225,0.0,0.0,89,0.00,,,0.00,WeatherCatV1.12B45,2013-01-14 05:32:00,
2013-01-14 00:37:00,61.7,58.5,30.15,SW,225,0.0,0.0,89,0.00,,,0.00,WeatherCatV1.12B45,2013-01-14 05:37:00,
2013-01-14 00:42:00,61.7,58.5,30.15,SW,225,0.0,0.0,89,0.00,,,0.00,WeatherCatV1.12B45,2013-01-14 05:42:00,
2013-01-14 00:47:00,61.9,58.7,30.15,SW,225,0.0,0.0,89,0.00,,,0.00,WeatherCatV1.12B45,2013-01-14 05:47:00,
2013-01-14 00:52:00,61.7,58.7,30.16,SW,225,0.0,0.0,89,0.00,,,0.00,WeatherCatV1.12B45,2013-01-14 05:52:00,
2013-01-14 00:57:00,61.9,58.7,30.16,SW,225,0.0,0.0,89,0.00,,,0.00,WeatherCatV1.12B45,2013-01-14 05:57:00,
2013-01-14 01:02:00,61.9,58.7,30.15,SW,225,0.0,0.0,89,0.00,,,0.00,WeatherCatV1.12B45,2013-01-14 06:02:00,
2013-01-14 01:07:00,61.9,58.7,30.15,SW,225,0.0,0.0,89,0.00,,,0.00,WeatherCatV1.12B45,2013-01-14 06:07:00,
2013-01-14 01:12:00,61.9,58.7,30.16,SW,225,0.0,0.0,89,0.00,,,0.00,WeatherCatV1.12B45,2013-01-14 06:12:00,
2013-01-14 01:17:00,61.9,58.7,30.16,SW,225,0.0,0.0,89,0.00,,,0.00,WeatherCatV1.12B45,2013-01-14 06:17:00,
2013-01-14 01:22:00,61.9,58.7,30.16,SW,225,0.0,0.0,89,0.00,,,0.00,WeatherCatV1.12B45,2013-01-14 06:22:00,
2013-01-14 01:27:00,61.9,58.7,30.16,SW,225,0.0,0.0,89,0.00,,,0.00,WeatherCatV1.12B45,2013-01-14 06:27:00,
2013-01-14 01:32:00,61.9,58.7,30.16,SW,225,0.0,0.0,89,0.00,,,0.00,WeatherCatV1.12B45,2013-01-14 06:32:00,
2013-01-14 01:37:00,61.9,58.7,30.16,SW,225,0.0,0.0,89,0.00,,,0.00,WeatherCatV1.12B45,2013-01-14 06:37:00,
2013-01-14 01:42:00,61.7,58.5,30.16,SW,225,0.0,0.0,89,0.00,,,0.00,WeatherCatV1.12B45,2013-01-14 06:42:00,
2013-01-14 01:47:00,61.7,58.5,30.16,SW,225,0.0,0.0,89,0.00,,,0.00,WeatherCatV1.12B45,2013-01-14 06:47:00,
2013-01-14 01:52:00,61.7,58.5,30.16,SW,225,0.0,0.0,89,0.00,,,0.00,WeatherCatV1.12B45,2013-01-14 06:52:00,
2013-01-14 01:57:00,61.5,58.3,30.16,SW,225,0.0,0.0,89,0.00,,,0.00,WeatherCatV1.12B45,2013-01-14 06:57:00,
2013-01-14 02:02:00,61.7,58.5,30.16,SW,225,0.0,0.0,89,0.00,,,0.00,WeatherCatV1.12B45,2013-01-14 07:02:00,
2013-01-14 02:07:00,61.7,58.5,30.16,SW,225,0.0,0.0,89,0.00,,,0.00,WeatherCatV1.12B45,2013-01-14 07:07:00,
2013-01-14 02:12:00,61.7,58.5,30.16,SW,225,0.0,0.0,89,0.00,,,0.00,WeatherCatV1.12B45,2013-01-14 07:12:00,
2013-01-14 02:17:00,61.7,58.5,30.17,SW,225,0.0,0.0,89,0.00,,,0.00,WeatherCatV1.12B45,2013-01-14 07:17:00,
2013-01-14 02:22:00,61.7,58.5,30.16,SW,225,0.0,0.0,89,0.00,,,0.00,WeatherCatV1.12B45,2013-01-14 07:22:00,
2013-01-14 02:27:00,61.5,58.3,30.16,SW,225,0.0,0.0,89,0.00,,,0.00,WeatherCatV1.12B45,2013-01-14 07:27:00,
2013-01-14 02:32:00,61.5,58.3,30.16,SW,225,0.0,0.0,89,0.00,,,0.00,WeatherCatV1.12B45,2013-01-14 07:32:00,
2013-01-14 02:37:00,61.5,58.3,30.16,SW,225,0.0,0.0,89,0.00,,,0.00,WeatherCatV1.12B45,2013-01-14 07:37:00,
2013-01-14 02:42:00,61.5,58.3,30.16,SW,225,0.0,0.0,89,0.00,,,0.00,WeatherCatV1.12B45,2013-01-14 07:42:00,
2013-01-14 02:47:00,61.5,58.3,30.16,SW,225,0.0,0.0,89,0.00,,,0.00,WeatherCatV1.12B45,2013-01-14 07:47:00,
2013-01-14 02:52:00,61.5,58.3,30.16,SW,225,0.0,0.0,89,0.00,,,0.00,WeatherCatV1.12B45,2013-01-14 07:52:00,
2013-01-14 02:57:00,61.5,58.3,30.16,SW,225,0.0,0.0,89,0.00,,,0.00,WeatherCatV1.12B45,2013-01-14 07:57:00,
2013-01-14 03:12:00,61.3,58.1,30.16,SW,225,0.0,0.0,89,0.00,,,0.00,WeatherCatV1.12B45,2013-01-14 08:12:00,
2013-01-14 03:17:00,61.2,57.9,30.16,SW,225,0.0,0.0,89,0.00,,,0.00,WeatherCatV1.12B45,2013-01-14 08:17:00,
2013-01-14 03:22:00,61.0,57.8,30.16,SSW,202,0.0,0.0,89,0.00,,,0.00,WeatherCatV1.12B45,2013-01-14 08:22:00,
2013-01-14 03:27:00,61.0,57.8,30.15,SSW,202,0.0,0.0,89,0.00,,,0.00,WeatherCatV1.12B45,2013-01-14 08:27:00,
2013-01-14 03:32:00,61.0,57.8,30.15,SSW,202,0.0,0.0,89,0.00,,,0.00,WeatherCatV1.12B45,2013-01-14 08:32:00,
2013-01-14 03:37:00,60.8,57.6,30.15,SSW,202,0.0,0.0,89,0.00,,,0.00,WeatherCatV1.12B45,2013-01-14 08:37:00,
2013-01-14 03:42:00,60.6,57.4,30.15,SSW,202,0.0,0.0,89,0.00,,,0.00,WeatherCatV1.12B45,2013-01-14 08:42:00,
2013-01-14 03:47:00,60.6,57.4,30.15,SSW,202,0.0,0.0,89,0.00,,,0.00,WeatherCatV1.12B45,2013-01-14 08:47:00,
2013-01-14 03:52:00,60.6,57.7,30.15,SSW,202,0.0,0.0,90,0.00,,,0.00,WeatherCatV1.12B45,2013-01-14 08:52:00,
2013-01-14 03:57:00,60.6,57.7,30.14,SSW,202,0.0,0.0,90,0.00,,,0.00,WeatherCatV1.12B45,2013-01-14 08:57:00,
2013-01-14 04:12:00,60.4,57.6,30.14,SW,225,0.0,0.0,90,0.00,,,0.00,WeatherCatV1.12B45,2013-01-14 09:12:00,
2013-01-14 04:17:00,60.4,57.6,30.14,SW,225,0.0,0.0,90,0.00,,,0.00,WeatherCatV1.12B45,2013-01-14 09:17:00,
2013-01-14 04:22:00,60.4,57.6,30.14,SW,225,0.0,0.0,90,0.00,,,0.00,WeatherCatV1.12B45,2013-01-14 09:22:00,
2013-01-14 04:27:00,60.4,57.6,30.13,SW,225,0.0,0.0,90,0.00,,,0.00,WeatherCatV1.12B45,2013-01-14 09:27:00,
2013-01-14 04:32:00,60.4,57.6,30.14,SW,225,0.0,0.0,90,0.00,,,0.00,WeatherCatV1.12B45,2013-01-14 09:32:00,
2013-01-14 04:37:00,60.4,57.6,30.14,SW,225,0.0,0.0,90,0.00,,,0.00,WeatherCatV1.12B45,2013-01-14 09:37:00,
2013-01-14 04:42:00,60.1,57.2,30.14,SW,225,0.0,0.0,90,0.00,,,0.00,WeatherCatV1.12B45,2013-01-14 09:42:00,
2013-01-14 04:47:00,60.3,57.4,30.14,SW,225,0.0,0.0,90,0.00,,,0.00,WeatherCatV1.12B45,2013-01-14 09:47:00,
2013-01-14 04:52:00,60.1,57.2,30.14,SW,225,0.0,0.0,90,0.00,,,0.00,WeatherCatV1.12B45,2013-01-14 09:52:00,
2013-01-14 04:57:00,60.1,57.2,30.14,SW,225,0.0,0.0,90,0.00,,,0.00,WeatherCatV1.12B45,2013-01-14 09:57:00,
2013-01-14 05:12:00,59.9,57.0,30.14,SW,225,0.0,0.0,90,0.00,,,0.00,WeatherCatV1.12B45,2013-01-14 10:12:00,
2013-01-14 05:22:00,59.9,57.0,30.13,SW,225,0.0,0.0,90,0.00,,,0.00,WeatherCatV1.12B45,2013-01-14 10:22:00,
2013-01-14 05:27:00,59.7,56.8,30.13,SW,225,0.0,0.0,90,0.00,,,0.00,WeatherCatV1.12B45,2013-01-14 10:27:00,
2013-01-14 05:32:00,59.7,56.8,30.13,SW,225,0.0,0.0,90,0.00,,,0.00,WeatherCatV1.12B45,2013-01-14 10:32:00,
2013-01-14 05:37:00,59.7,56.8,30.13,SW,225,0.0,0.0,90,0.00,,,0.00,WeatherCatV1.12B45,2013-01-14 10:37:00,
2013-01-14 05:42:00,59.7,56.8,30.13,SW,225,0.0,0.0,90,0.00,,,0.00,WeatherCatV1.12B45,2013-01-14 10:42:00,
2013-01-14 05:47:00,59.7,56.8,30.13,SW,225,0.0,0.0,90,0.00,,,0.00,WeatherCatV1.12B45,2013-01-14 10:47:00,
2013-01-14 05:52:00,59.7,56.8,30.14,SW,225,0.0,0.0,90,0.00,,,0.00,WeatherCatV1.12B45,2013-01-14 10:52:00,
2013-01-14 05:57:00,59.5,56.7,30.14,SW,225,0.0,0.0,90,0.00,,,0.00,WeatherCatV1.12B45,2013-01-14 10:57:00,
2013-01-14 06:07:00,59.5,56.7,30.14,SW,225,0.0,0.0,90,0.00,,,0.00,WeatherCatV1.12B45,2013-01-14 11:07:00,
2013-01-14 06:12:00,59.5,56.7,30.14,SW,225,0.0,0.0,90,0.00,,,0.00,WeatherCatV1.12B45,2013-01-14 11:12:00,
2013-01-14 06:17:00,59.5,56.7,30.14,SW,225,0.0,0.0,90,0.00,,,0.00,WeatherCatV1.12B45,2013-01-14 11:17:00,
2013-01-14 06:22:00,59.4,56.5,30.14,SW,225,0.0,0.0,90,0.00,,,0.00,WeatherCatV1.12B45,2013-01-14 11:22:00,
2013-01-14 06:27:00,59.4,56.5,30.14,SW,225,0.0,0.0,90,0.00,,,0.00,WeatherCatV1.12B45,2013-01-14 11:27:00,
2013-01-14 06:32:00,59.4,56.5,30.15,SW,225,0.0,0.0,90,0.00,,,0.00,WeatherCatV1.12B45,2013-01-14 11:32:00,
2013-01-14 06:37:00,59.4,56.5,30.15,SW,225,0.0,0.0,90,0.00,,,0.00,WeatherCatV1.12B45,2013-01-14 11:37:00,
2013-01-14 06:42:00,59.2,56.3,30.14,SW,225,0.0,0.0,90,0.00,,,0.00,WeatherCatV1.12B45,2013-01-14 11:42:00,
2013-01-14 06:47:00,59.2,56.3,30.15,SW,225,0.0,0.0,90,0.00,,,0.00,WeatherCatV1.12B45,2013-01-14 11:47:00,
2013-01-14 06:52:00,59.2,56.3,30.14,SW,225,0.0,0.0,90,0.00,,,0.00,WeatherCatV1.12B45,2013-01-14 11:52:00,
2013-01-14 06:57:00,59.2,56.3,30.15,SW,225,0.0,0.0,90,0.00,,,0.00,WeatherCatV1.12B45,2013-01-14 11:57:00,
2013-01-14 07:02:00,59.2,56.3,30.15,SW,225,0.0,0.0,90,0.00,,,0.00,WeatherCatV1.12B45,2013-01-14 12:02:00,
2013-01-14 07:07:00,59.2,56.3,30.15,SW,225,0.0,0.0,90,0.00,,,0.00,WeatherCatV1.12B45,2013-01-14 12:07:00,
2013-01-14 07:12:00,59.0,56.1,30.15,SW,225,0.0,0.0,90,0.00,,,0.00,WeatherCatV1.12B45,2013-01-14 12:12:00,
2013-01-14 07:17:00,59.0,56.1,30.15,SW,225,0.0,0.0,90,0.00,,,0.00,WeatherCatV1.12B45,2013-01-14 12:17:00,
2013-01-14 07:22:00,59.0,56.1,30.16,SW,225,0.0,0.0,90,0.00,,,0.00,WeatherCatV1.12B45,2013-01-14 12:22:00,
2013-01-14 07:27:00,59.0,56.1,30.16,SW,225,0.0,0.0,90,0.00,,,0.00,WeatherCatV1.12B45,2013-01-14 12:27:00,
2013-01-14 07:32:00,58.8,55.9,30.16,SW,225,0.0,0.0,90,0.00,,,0.00,WeatherCatV1.12B45,2013-01-14 12:32:00,
2013-01-14 07:37:00,58.8,55.9,30.16,SW,225,0.0,0.0,90,0.00,,,0.00,WeatherCatV1.12B45,2013-01-14 12:37:00,
2013-01-14 07:42:00,58.8,55.9,30.16,SW,225,0.0,0.0,90,0.00,,,0.00,WeatherCatV1.12B45,2013-01-14 12:42:00,
2013-01-14 07:47:00,59.0,56.1,30.16,SW,225,0.0,0.0,90,0.00,,,0.00,WeatherCatV1.12B45,2013-01-14 12:47:00,
2013-01-14 07:52:00,59.0,56.1,30.16,SW,225,0.0,0.0,90,0.00,,,0.00,WeatherCatV1.12B45,2013-01-14 12:52:00,
2013-01-14 07:57:00,59.0,56.1,30.16,SW,225,0.0,0.0,90,0.00,,,0.00,WeatherCatV1.12B45,2013-01-14 12:57:00,
2013-01-14 08:02:00,59.2,56.3,30.17,SW,225,0.0,0.0,90,0.00,,,0.00,WeatherCatV1.12B45,2013-01-14 13:02:00,
2013-01-14 08:07:00,59.2,56.3,30.17,SW,225,0.0,0.0,90,0.00,,,0.00,WeatherCatV1.12B45,2013-01-14 13:07:00,
2013-01-14 08:12:00,59.4,56.5,30.17,SW,225,0.0,0.0,90,0.00,,,0.00,WeatherCatV1.12B45,2013-01-14 13:12:00,
2013-01-14 08:17:00,59.5,56.7,30.18,SW,225,0.0,0.0,90,0.00,,,0.00,WeatherCatV1.12B45,2013-01-14 13:17:00,
2013-01-14 08:22:00,59.7,56.8,30.17,SW,225,0.0,0.0,90,0.00,,,0.00,WeatherCatV1.12B45,2013-01-14 13:22:00,
2013-01-14 08:27:00,59.9,57.0,30.18,SW,225,0.0,0.0,90,0.00,,,0.00,WeatherCatV1.12B45,2013-01-14 13:27:00,
2013-01-14 08:32:00,60.3,57.4,30.19,SW,225,0.0,0.0,90,0.00,,,0.00,WeatherCatV1.12B45,2013-01-14 13:32:00,
2013-01-14 08:37:00,60.6,57.7,30.19,SSW,202,0.0,0.0,90,0.00,,,0.00,WeatherCatV1.12B45,2013-01-14 13:37:00,
2013-01-14 08:42:00,61.2,58.6,30.18,SSW,202,0.0,0.0,91,0.00,,,0.00,WeatherCatV1.12B45,2013-01-14 13:42:00,
2013-01-14 08:47:00,61.5,58.9,30.18,SW,225,0.0,0.0,91,0.00,,,0.00,WeatherCatV1.12B45,2013-01-14 13:47:00,
2013-01-14 08:52:00,61.9,59.3,30.18,SW,225,0.0,0.0,91,0.00,,,0.00,WeatherCatV1.12B45,2013-01-14 13:52:00,
2013-01-14 08:57:00,62.2,59.6,30.19,SW,225,0.0,0.0,91,0.00,,,0.00,WeatherCatV1.12B45,2013-01-14 13:57:00,
2013-01-14 09:02:00,62.4,59.8,30.19,SW,225,0.0,0.0,91,0.00,,,0.00,WeatherCatV1.12B45,2013-01-14 14:02:00,
2013-01-14 09:07:00,63.0,60.4,30.19,WSW,247,0.0,0.0,91,0.00,,,0.00,WeatherCatV1.12B45,2013-01-14 14:07:00,
2013-01-14 09:12:00,63.3,60.7,30.19,SSW,202,1.3,1.3,91,0.00,,,0.00,WeatherCatV1.12B45,2013-01-14 14:12:00,
2013-01-14 09:17:00,63.7,61.1,30.19,SW,225,0.0,0.0,91,0.00,,,0.00,WeatherCatV1.12B45,2013-01-14 14:17:00,
2013-01-14 09:22:00,64.2,61.6,30.19,SW,225,0.0,0.0,91,0.00,,,0.00,WeatherCatV1.12B45,2013-01-14 14:22:00,
2013-01-14 09:27:00,64.6,62.0,30.19,SW,225,0.0,0.0,91,0.00,,,0.00,WeatherCatV1.12B45,2013-01-14 14:27:00,
2013-01-14 09:32:00,64.9,62.3,30.19,SSW,202,0.0,0.0,91,0.00,,,0.00,WeatherCatV1.12B45,2013-01-14 14:32:00,
2013-01-14 09:37:00,65.7,62.9,30.19,SSW,202,0.0,0.0,91,0.00,,,0.00,WeatherCatV1.12B45,2013-01-14 14:37:00,
2013-01-14 09:47:00,66.9,64.2,30.19,South,180,0.0,0.0,91,0.00,,,0.00,WeatherCatV1.12B45,2013-01-14 14:47:00,
2013-01-14 09:52:00,67.8,65.1,30.19,SW,225,0.0,0.0,91,0.00,,,0.00,WeatherCatV1.12B45,2013-01-14 14:52:00,
2013-01-14 09:57:00,68.4,65.6,30.20,SSW,202,0.0,0.0,91,0.00,,,0.00,WeatherCatV1.12B45,2013-01-14 14:57:00,
2013-01-14 10:02:00,68.5,65.8,30.20,SW,225,1.3,1.3,91,0.00,,,0.00,WeatherCatV1.12B45,2013-01-14 15:02:00,
2013-01-14 10:07:00,69.4,66.7,30.20,WSW,247,1.1,1.1,91,0.00,,,0.00,WeatherCatV1.12B45,2013-01-14 15:07:00,
2013-01-14 10:12:00,69.8,66.7,30.19,WSW,247,2.9,2.9,90,0.00,,,0.00,WeatherCatV1.12B45,2013-01-14 15:12:00,
2013-01-14 10:17:00,70.3,67.3,30.19,SSW,202,1.3,1.3,90,0.00,,,0.00,WeatherCatV1.12B45,2013-01-14 15:17:00,
2013-01-14 10:22:00,70.5,67.1,30.19,SW,225,2.9,2.9,89,0.00,,,0.00,WeatherCatV1.12B45,2013-01-14 15:22:00,
2013-01-14 10:27:00,70.9,67.1,30.19,SSW,202,0.0,0.0,88,0.00,,,0.00,WeatherCatV1.12B45,2013-01-14 15:27:00,
2013-01-14 10:32:00,71.2,67.2,30.19,SW,225,0.0,0.0,87,0.00,,,0.00,WeatherCatV1.12B45,2013-01-14 15:32:00,
2013-01-14 10:37:00,71.4,67.0,30.19,SSW,202,0.0,1.6,86,0.00,,,0.00,WeatherCatV1.12B45,2013-01-14 15:37:00,
2013-01-14 10:42:00,71.8,67.4,30.19,SSW,202,0.0,0.0,86,0.00,,,0.00,WeatherCatV1.12B45,2013-01-14 15:42:00,
2013-01-14 10:47:00,72.0,67.5,30.19,SSW,202,0.0,0.0,86,0.00,,,0.00,WeatherCatV1.12B45,2013-01-14 15:47:00,
2013-01-14 10:52:00,72.1,67.4,30.19,South,180,1.3,2.0,85,0.00,,,0.00,WeatherCatV1.12B45,2013-01-14 15:52:00,
2013-01-14 10:57:00,72.3,67.2,30.19,WSW,247,0.0,0.0,84,0.00,,,0.00,WeatherCatV1.12B45,2013-01-14 15:57:00,
2013-01-14 11:02:00,72.7,67.2,30.19,SW,225,2.7,2.7,83,0.00,,,0.00,WeatherCatV1.12B45,2013-01-14 16:02:00,
2013-01-14 11:07:00,72.7,66.9,30.18,WSW,247,0.0,1.3,82,0.00,,,0.00,WeatherCatV1.12B45,2013-01-14 16:07:00,
2013-01-14 11:12:00,72.9,66.7,30.18,SSE,157,1.6,1.6,81,0.00,,,0.00,WeatherCatV1.12B45,2013-01-14 16:12:00,
2013-01-14 11:17:00,73.0,66.9,30.18,WSW,247,2.2,2.2,81,0.00,,,0.00,WeatherCatV1.12B45,2013-01-14 16:17:00,
2013-01-14 11:22:00,73.2,66.7,30.17,NW,315,1.6,1.6,80,0.00,,,0.00,WeatherCatV1.12B45,2013-01-14 16:22:00,
2013-01-14 11:27:00,73.2,66.7,30.17,WSW,247,0.0,0.0,80,0.00,,,0.00,WeatherCatV1.12B45,2013-01-14 16:27:00,
2013-01-14 11:32:00,73.4,66.9,30.17,SSW,202,0.0,0.0,80,0.00,,,0.00,WeatherCatV1.12B45,2013-01-14 16:32:00,
2013-01-14 11:37:00,73.6,67.1,30.17,SSW,202,0.0,1.8,80,0.00,,,0.00,WeatherCatV1.12B45,2013-01-14 16:37:00,
2013-01-14 11:42:00,73.8,67.3,30.17,SW,225,2.0,2.0,80,0.00,,,0.00,WeatherCatV1.12B45,2013-01-14 16:42:00,
2013-01-14 11:47:00,73.9,67.1,30.16,SSW,202,0.9,0.9,79,0.00,,,0.00,WeatherCatV1.12B45,2013-01-14 16:47:00,
2013-01-14 11:52:00,74.1,67.2,30.15,SSW,202,4.0,4.0,79,0.00,,,0.00,WeatherCatV1.12B45,2013-01-14 16:52:00,
2013-01-14 11:57:00,74.3,67.0,30.15,SSW,202,2.2,2.2,78,0.00,,,0.00,WeatherCatV1.12B45,2013-01-14 16:57:00,
2013-01-14 12:02:00,74.5,67.2,30.15,South,180,1.1,1.1,78,0.00,,,0.00,WeatherCatV1.12B45,2013-01-14 17:02:00,
2013-01-14 12:07:00,75.0,67.0,30.15,WSW,247,1.6,1.6,76,0.00,,,0.00,WeatherCatV1.12B45,2013-01-14 17:07:00,
2013-01-14 12:12:00,75.0,66.6,30.15,SSW,202,0.0,0.0,75,0.00,,,0.00,WeatherCatV1.12B45,2013-01-14 17:12:00,
2013-01-14 12:17:00,75.2,66.7,30.14,SSW,202,0.0,0.0,75,0.00,,,0.00,WeatherCatV1.12B45,2013-01-14 17:17:00,
2013-01-14 12:22:00,75.2,66.7,30.14,SSW,202,0.7,0.7,75,0.00,,,0.00,WeatherCatV1.12B45,2013-01-14 17:22:00,
2013-01-14 12:27:00,75.0,66.6,30.14,SSE,157,0.9,0.9,75,0.00,,,0.00,WeatherCatV1.12B45,2013-01-14 17:27:00,
2013-01-14 12:32:00,75.0,66.6,30.14,SSW,202,0.0,0.0,75,0.00,,,0.00,WeatherCatV1.12B45,2013-01-14 17:32:00,
2013-01-14 12:37:00,75.0,66.6,30.14,SE,135,0.0,0.0,75,0.00,,,0.00,WeatherCatV1.12B45,2013-01-14 17:37:00,
2013-01-14 13:09:00,73.9,66.3,30.13,SE,135,0.9,2.5,78,0.00,,,0.00,WeatherCatV1.12B45,2013-01-14 18:09:00,
2013-01-14 13:14:00,73.8,66.1,30.13,SE,135,0.0,0.0,77,0.00,,,0.00,WeatherCatV1.12B45,2013-01-14 18:14:00,
2013-01-14 13:19:00,73.8,66.5,30.13,SE,135,1.6,1.6,78,0.00,,,0.00,WeatherCatV1.12B45,2013-01-14 18:19:00,
2013-01-14 13:24:00,73.8,66.5,30.12,SSE,157,0.0,0.0,78,0.00,,,0.00,WeatherCatV1.12B45,2013-01-14 18:24:00,
2013-01-14 13:29:00,73.9,66.7,30.13,SSE,157,0.0,1.1,78,0.00,,,0.00,WeatherCatV1.12B45,2013-01-14 18:29:00,
2013-01-14 13:34:00,74.1,66.9,30.13,SSE,157,0.9,0.9,78,0.00,,,0.00,WeatherCatV1.12B45,2013-01-14 18:34:00,
2013-01-14 13:39:00,74.1,66.9,30.12,SSE,157,1.1,1.1,78,0.00,,,0.00,WeatherCatV1.12B45,2013-01-14 18:39:00,
2013-01-14 13:44:00,74.5,66.8,30.12,SSE,157,0.0,0.0,77,0.00,,,0.00,WeatherCatV1.12B45,2013-01-14 18:44:00,
2013-01-14 13:49:00,74.8,66.8,30.13,SE,135,1.6,1.6,76,0.00,,,0.00,WeatherCatV1.12B45,2013-01-14 18:49:00,
2013-01-14 13:54:00,74.8,67.0,30.12,SSE,157,1.6,1.6,76,0.00,,,0.00,WeatherCatV1.12B45,2013-01-14 18:54:00,
2013-01-14 13:59:00,74.8,66.4,30.12,SE,135,2.5,2.5,75,0.00,,,0.00,WeatherCatV1.12B45,2013-01-14 18:59:00,
2013-01-14 14:04:00,74.8,66.4,30.11,SE,135,0.7,0.7,75,0.00,,,0.00,WeatherCatV1.12B45,2013-01-14 19:04:00,
2013-01-14 14:09:00,75.0,66.4,30.11,SSE,157,1.8,1.8,75,0.00,,,0.00,WeatherCatV1.12B45,2013-01-14 19:09:00,
2013-01-14 14:14:00,74.8,66.4,30.11,South,180,0.0,0.0,75,0.00,,,0.00,WeatherCatV1.12B45,2013-01-14 19:14:00,
2013-01-14 14:19:00,74.8,66.4,30.11,SE,135,1.3,1.3,75,0.00,,,0.00,WeatherCatV1.12B45,2013-01-14 19:19:00,
2013-01-14 14:24:00,74.8,66.4,30.11,SE,135,1.8,1.8,75,0.00,,,0.00,WeatherCatV1.12B45,2013-01-14 19:24:00,
2013-01-14 14:29:00,74.5,66.1,30.11,SSE,157,1.8,1.8,75,0.00,,,0.00,WeatherCatV1.12B45,2013-01-14 19:29:00,
2013-01-14 14:34:00,74.3,65.5,30.11,SE,135,0.0,0.0,74,0.00,,,0.00,WeatherCatV1.12B45,2013-01-14 19:34:00,
2013-01-14 14:39:00,73.9,65.2,30.11,SSE,157,0.0,0.0,74,0.00,,,0.00,WeatherCatV1.12B45,2013-01-14 19:39:00,
2013-01-14 14:44:00,73.9,65.2,30.11,SSE,157,0.0,0.0,74,0.00,,,0.00,WeatherCatV1.12B45,2013-01-14 19:44:00,
2013-01-14 14:49:00,73.8,65.0,30.11,SSE,157,0.9,0.9,74,0.00,,,0.00,WeatherCatV1.12B45,2013-01-14 19:49:00,
2013-01-14 14:54:00,73.8,65.0,30.12,South,180,1.3,1.3,74,0.00,,,0.00,WeatherCatV1.12B45,2013-01-14 19:54:00,
2013-01-14 14:59:00,73.8,65.0,30.12,SSE,157,1.6,1.6,74,0.00,,,0.00,WeatherCatV1.12B45,2013-01-14 19:59:00,
2013-01-14 15:04:00,73.6,64.8,30.12,SE,135,0.0,0.0,74,0.00,,,0.00,WeatherCatV1.12B45,2013-01-14 20:04:00,
2013-01-14 15:09:00,73.6,64.8,30.12,SSE,157,0.0,0.0,74,0.00,,,0.00,WeatherCatV1.12B45,2013-01-14 20:09:00,
2013-01-14 15:14:00,73.8,65.0,30.13,SSE,157,0.0,1.3,74,0.00,,,0.00,WeatherCatV1.12B45,2013-01-14 20:14:00,
2013-01-14 15:19:00,73.8,65.4,30.13,SE,135,1.1,1.1,75,0.00,,,0.00,WeatherCatV1.12B45,2013-01-14 20:19:00,
2013-01-14 15:24:00,73.6,65.2,30.13,SSE,157,0.0,0.0,75,0.00,,,0.00,WeatherCatV1.12B45,2013-01-14 20:24:00,
2013-01-14 15:29:00,73.6,65.2,30.13,South,180,0.0,1.1,75,0.00,,,0.00,WeatherCatV1.12B45,2013-01-14 20:29:00,
2013-01-14 15:34:00,73.6,65.6,30.13,South,180,0.0,0.0,76,0.00,,,0.00,WeatherCatV1.12B45,2013-01-14 20:34:00,
2013-01-14 15:39:00,73.2,65.2,30.13,SE,135,0.9,0.9,76,0.00,,,0.00,WeatherCatV1.12B45,2013-01-14 20:39:00,
2013-01-14 15:44:00,73.2,65.2,30.13,SSE,157,1.8,1.8,76,0.00,,,0.00,WeatherCatV1.12B45,2013-01-14 20:44:00,
2013-01-14 15:49:00,73.2,65.6,30.13,SE,135,0.9,0.9,77,0.00,,,0.00,WeatherCatV1.12B45,2013-01-14 20:49:00,
2013-01-14 15:54:00,73.0,65.4,30.13,SSE,157,0.7,0.7,77,0.00,,,0.00,WeatherCatV1.12B45,2013-01-14 20:54:00,
2013-01-14 15:59:00,72.9,65.2,30.14,SSE,157,0.0,2.7,77,0.00,,,0.00,WeatherCatV1.12B45,2013-01-14 20:59:00,
2013-01-14 16:04:00,72.7,65.1,30.14,SSE,157,1.1,1.1,77,0.00,,,0.00,WeatherCatV1.12B45,2013-01-14 21:04:00,
2013-01-14 16:09:00,72.5,65.3,30.14,South,180,0.0,0.0,78,0.00,,,0.00,WeatherCatV1.12B45,2013-01-14 21:09:00,
2013-01-14 16:14:00,72.3,64.7,30.14,SSE,157,0.0,0.0,77,0.00,,,0.00,WeatherCatV1.12B45,2013-01-14 21:14:00,
2013-01-14 16:19:00,72.3,65.1,30.14,SE,135,0.0,0.0,78,0.00,,,0.00,WeatherCatV1.12B45,2013-01-14 21:19:00,
2013-01-14 16:24:00,72.3,65.1,30.14,SE,135,0.0,1.3,78,0.00,,,0.00,WeatherCatV1.12B45,2013-01-14 21:24:00,
2013-01-14 16:34:00,72.1,64.9,30.14,SSE,157,0.0,0.0,78,0.00,,,0.00,WeatherCatV1.12B45,2013-01-14 21:34:00,
2013-01-14 16:39:00,72.0,65.1,30.14,South,180,1.6,1.6,79,0.00,,,0.00,WeatherCatV1.12B45,2013-01-14 21:39:00,
2013-01-14 16:44:00,71.8,64.9,30.14,SSE,157,0.0,0.0,79,0.00,,,0.00,WeatherCatV1.12B45,2013-01-14 21:44:00,
2013-01-14 16:49:00,71.8,64.9,30.15,SSE,157,0.0,0.0,79,0.00,,,0.00,WeatherCatV1.12B45,2013-01-14 21:49:00,
2013-01-14 16:54:00,71.4,64.6,30.15,South,180,0.0,0.0,79,0.00,,,0.00,WeatherCatV1.12B45,2013-01-14 21:54:00,
2013-01-14 16:59:00,71.4,64.6,30.15,SSE,157,0.0,0.0,79,0.00,,,0.00,WeatherCatV1.12B45,2013-01-14 21:59:00,
2013-01-14 17:04:00,71.2,64.4,30.14,SSE,157,1.3,1.3,79,0.00,,,0.00,WeatherCatV1.12B45,2013-01-14 22:04:00,
2013-01-14 17:09:00,71.2,64.4,30.15,SSE,157,0.0,0.0,79,0.00,,,0.00,WeatherCatV1.12B45,2013-01-14 22:09:00,
2013-01-14 17:14:00,70.9,64.4,30.15,South,180,0.0,0.0,80,0.00,,,0.00,WeatherCatV1.12B45,2013-01-14 22:14:00,
2013-01-14 17:19:00,70.5,64.0,30.15,SSE,157,1.1,1.1,80,0.00,,,0.00,WeatherCatV1.12B45,2013-01-14 22:19:00,
2013-01-14 17:24:00,70.3,63.9,30.15,SSE,157,0.0,0.0,80,0.00,,,0.00,WeatherCatV1.12B45,2013-01-14 22:24:00,
2013-01-14 17:29:00,70.2,63.7,30.15,South,180,0.0,0.0,80,0.00,,,0.00,WeatherCatV1.12B45,2013-01-14 22:29:00,
2013-01-14 17:34:00,70.0,63.5,30.15,SSE,157,0.0,0.0,80,0.00,,,0.00,WeatherCatV1.12B45,2013-01-14 22:34:00,
2013-01-14 17:39:00,69.6,63.5,30.16,South,180,0.0,0.0,81,0.00,,,0.00,WeatherCatV1.12B45,2013-01-14 22:39:00,
2013-01-14 17:44:00,69.4,63.3,30.15,SSE,157,0.0,0.0,81,0.00,,,0.00,WeatherCatV1.12B45,2013-01-14 22:44:00,
2013-01-14 17:49:00,69.4,63.3,30.15,South,180,1.1,1.1,81,0.00,,,0.00,WeatherCatV1.12B45,2013-01-14 22:49:00,
2013-01-14 17:54:00,69.1,63.3,30.16,SSE,157,1.1,1.1,82,0.00,,,0.00,WeatherCatV1.12B45,2013-01-14 22:54:00,
2013-01-14 17:59:00,68.9,63.2,30.16,South,180,0.0,0.7,82,0.00,,,0.00,WeatherCatV1.12B45,2013-01-14 22:59:00,
2013-01-14 18:04:00,68.7,63.0,30.16,SSE,157,0.0,0.0,82,0.00,,,0.00,WeatherCatV1.12B45,2013-01-14 23:04:00,
2013-01-14 18:09:00,68.5,62.8,30.16,South,180,0.7,0.7,82,0.00,,,0.00,WeatherCatV1.12B45,2013-01-14 23:09:00,
2013-01-14 18:14:00,68.4,63.0,30.16,SSE,157,0.9,1.1,83,0.00,,,0.00,WeatherCatV1.12B45,2013-01-14 23:14:00,
2013-01-14 18:19:00,68.2,62.8,30.16,South,180,0.0,0.0,83,0.00,,,0.00,WeatherCatV1.12B45,2013-01-14 23:19:00,
2013-01-14 18:24:00,68.2,62.8,30.16,SSE,157,0.0,1.3,83,0.00,,,0.00,WeatherCatV1.12B45,2013-01-14 23:24:00,
2013-01-14 18:29:00,67.8,62.5,30.16,South,180,0.0,0.0,83,0.00,,,0.00,WeatherCatV1.12B45,2013-01-14 23:29:00,
2013-01-14 18:34:00,67.8,62.5,30.16,SSE,157,0.0,0.0,83,0.00,,,0.00,WeatherCatV1.12B45,2013-01-14 23:34:00,
2013-01-14 18:39:00,67.8,62.8,30.16,South,180,0.0,0.0,84,0.00,,,0.00,WeatherCatV1.12B45,2013-01-14 23:39:00,
2013-01-14 18:44:00,67.6,62.6,30.16,South,180,0.0,0.0,84,0.00,,,0.00,WeatherCatV1.12B45,2013-01-14 23:44:00,
2013-01-14 18:49:00,67.6,62.6,30.17,SSE,157,0.0,0.0,84,0.00,,,0.00,WeatherCatV1.12B45,2013-01-14 23:49:00,
2013-01-14 18:54:00,67.3,62.3,30.17,South,180,1.1,1.1,84,0.00,,,0.00,WeatherCatV1.12B45,2013-01-14 23:54:00,
2013-01-14 18:59:00,67.3,62.3,30.16,South,180,0.0,0.0,84,0.00,,,0.00,WeatherCatV1.12B45,2013-01-14 23:59:00,
2013-01-14 19:04:00,67.3,62.3,30.17,South,180,0.0,0.0,84,0.00,,,0.00,WeatherCatV1.12B45,2013-01-15 00:04:00,
2013-01-14 19:09:00,67.1,62.1,30.17,South,180,0.0,0.0,84,0.00,,,0.00,WeatherCatV1.12B45,2013-01-15 00:09:00,
2013-01-14 19:14:00,67.1,62.1,30.17,South,180,0.9,0.9,84,0.00,,,0.00,WeatherCatV1.12B45,2013-01-15 00:14:00,
2013-01-14 19:19:00,66.9,61.9,30.17,SSE,157,0.0,0.0,84,0.00,,,0.00,WeatherCatV1.12B45,2013-01-15 00:19:00,
2013-01-14 19:24:00,66.9,61.9,30.17,South,180,0.0,0.0,84,0.00,,,0.00,WeatherCatV1.12B45,2013-01-15 00:24:00,
2013-01-14 19:29:00,66.9,61.9,30.17,South,180,0.0,0.0,84,0.00,,,0.00,WeatherCatV1.12B45,2013-01-15 00:29:00,
2013-01-14 19:34:00,66.9,62.2,30.17,South,180,0.0,0.0,85,0.00,,,0.00,WeatherCatV1.12B45,2013-01-15 00:34:00,
2013-01-14 19:39:00,66.9,62.2,30.17,South,180,1.3,1.3,85,0.00,,,0.00,WeatherCatV1.12B45,2013-01-15 00:39:00,
2013-01-14 19:44:00,66.7,62.1,30.17,South,180,0.0,0.0,85,0.00,,,0.00,WeatherCatV1.12B45,2013-01-15 00:44:00,
2013-01-14 19:49:00,66.9,62.2,30.17,SSE,157,0.0,0.0,85,0.00,,,0.00,WeatherCatV1.12B45,2013-01-15 00:49:00,
2013-01-14 19:54:00,66.9,62.6,30.16,South,180,0.0,0.9,86,0.00,,,0.00,WeatherCatV1.12B45,2013-01-15 00:54:00,
2013-01-14 19:59:00,66.9,62.6,30.16,SSE,157,0.0,0.0,86,0.00,,,0.00,WeatherCatV1.12B45,2013-01-15 00:59:00,
2013-01-14 20:04:00,66.9,62.6,30.16,South,180,0.0,0.0,86,0.00,,,0.00,WeatherCatV1.12B45,2013-01-15 01:04:00,
2013-01-14 20:09:00,66.9,62.6,30.16,South,180,1.6,1.6,86,0.00,,,0.00,WeatherCatV1.12B45,2013-01-15 01:09:00,
2013-01-14 20:14:00,66.9,62.6,30.16,South,180,0.0,0.0,86,0.00,,,0.00,WeatherCatV1.12B45,2013-01-15 01:14:00,
2013-01-14 20:19:00,66.9,62.9,30.16,SSE,157,0.9,0.9,87,0.00,,,0.00,WeatherCatV1.12B45,2013-01-15 01:19:00,
2013-01-14 20:24:00,66.9,62.9,30.16,South,180,0.0,0.0,87,0.00,,,0.00,WeatherCatV1.12B45,2013-01-15 01:24:00,
2013-01-14 20:29:00,66.9,62.9,30.16,South,180,0.0,0.0,87,0.00,,,0.00,WeatherCatV1.12B45,2013-01-15 01:29:00,
2013-01-14 20:34:00,66.9,62.9,30.16,South,180,0.0,0.0,87,0.00,,,0.00,WeatherCatV1.12B45,2013-01-15 01:34:00,
2013-01-14 20:39:00,66.7,62.7,30.16,SSW,202,0.0,1.1,87,0.00,,,0.00,WeatherCatV1.12B45,2013-01-15 01:39:00,
2013-01-14 20:44:00,66.7,62.7,30.16,South,180,1.1,1.1,87,0.00,,,0.00,WeatherCatV1.12B45,2013-01-15 01:44:00,
2013-01-14 20:49:00,66.7,62.7,30.16,South,180,0.0,0.0,87,0.00,,,0.00,WeatherCatV1.12B45,2013-01-15 01:49:00,
2013-01-14 20:54:00,66.6,62.5,30.16,South,180,0.0,0.0,87,0.00,,,0.00,WeatherCatV1.12B45,2013-01-15 01:54:00,
2013-01-14 20:59:00,66.6,62.5,30.16,SSW,202,0.0,0.0,87,0.00,,,0.00,WeatherCatV1.12B45,2013-01-15 01:59:00,
2013-01-14 21:04:00,66.6,62.5,30.16,South,180,0.0,0.0,87,0.00,,,0.00,WeatherCatV1.12B45,2013-01-15 02:04:00,
2013-01-14 21:09:00,66.4,62.3,30.16,South,180,0.9,0.9,87,0.00,,,0.00,WeatherCatV1.12B45,2013-01-15 02:09:00,
2013-01-14 21:14:00,66.4,62.3,30.16,South,180,0.0,0.0,87,0.00,,,0.00,WeatherCatV1.12B45,2013-01-15 02:14:00,
2013-01-14 21:19:00,66.4,62.3,30.16,SSW,202,0.0,0.0,87,0.00,,,0.00,WeatherCatV1.12B45,2013-01-15 02:19:00,
2013-01-14 21:24:00,66.0,62.0,30.17,South,180,0.0,0.0,87,0.00,,,0.00,WeatherCatV1.12B45,2013-01-15 02:24:00,
2013-01-14 21:29:00,66.0,62.0,30.17,SSW,202,0.0,0.0,87,0.00,,,0.00,WeatherCatV1.12B45,2013-01-15 02:29:00,
2013-01-14 21:34:00,66.0,62.0,30.17,South,180,0.0,0.0,87,0.00,,,0.00,WeatherCatV1.12B45,2013-01-15 02:34:00,
2013-01-14 21:39:00,66.0,62.0,30.16,South,180,0.0,0.0,87,0.00,,,0.00,WeatherCatV1.12B45,2013-01-15 02:39:00,
2013-01-14 21:44:00,66.0,62.0,30.16,South,180,0.0,0.0,87,0.00,,,0.00,WeatherCatV1.12B45,2013-01-15 02:44:00,
2013-01-14 21:49:00,66.0,62.0,30.16,SSW,202,0.0,0.0,87,0.00,,,0.00,WeatherCatV1.12B45,2013-01-15 02:49:00,
2013-01-14 21:54:00,65.8,61.8,30.16,SSW,202,0.0,0.0,87,0.00,,,0.00,WeatherCatV1.12B45,2013-01-15 02:54:00,
2013-01-14 21:59:00,65.8,61.8,30.16,South,180,0.0,0.0,87,0.00,,,0.00,WeatherCatV1.12B45,2013-01-15 02:59:00,
2013-01-14 22:04:00,65.8,61.8,30.16,SSW,202,0.0,0.0,87,0.00,,,0.00,WeatherCatV1.12B45,2013-01-15 03:04:00,
2013-01-14 22:09:00,65.7,61.7,30.16,SSW,202,0.0,0.0,87,0.00,,,0.00,WeatherCatV1.12B45,2013-01-15 03:09:00,
2013-01-14 22:14:00,65.7,61.7,30.16,SSW,202,0.0,0.0,87,0.00,,,0.00,WeatherCatV1.12B45,2013-01-15 03:14:00,
2013-01-14 22:19:00,65.7,61.7,30.17,SSW,202,0.0,0.0,87,0.00,,,0.00,WeatherCatV1.12B45,2013-01-15 03:19:00,
2013-01-14 22:24:00,65.7,61.7,30.17,SSW,202,0.0,0.0,87,0.00,,,0.00,WeatherCatV1.12B45,2013-01-15 03:24:00,
2013-01-14 22:29:00,65.8,61.8,30.17,South,180,0.0,0.0,87,0.00,,,0.00,WeatherCatV1.12B45,2013-01-15 03:29:00,
2013-01-14 22:34:00,65.8,61.8,30.16,South,180,0.0,0.0,87,0.00,,,0.00,WeatherCatV1.12B45,2013-01-15 03:34:00,
2013-01-14 22:39:00,65.8,62.2,30.16,South,180,0.0,0.0,88,0.00,,,0.00,WeatherCatV1.12B45,2013-01-15 03:39:00,
2013-01-14 22:44:00,65.8,62.2,30.16,South,180,0.0,0.0,88,0.00,,,0.00,WeatherCatV1.12B45,2013-01-15 03:44:00,
2013-01-14 22:49:00,65.8,62.2,30.16,South,180,0.0,0.0,88,0.00,,,0.00,WeatherCatV1.12B45,2013-01-15 03:49:00,
2013-01-14 22:54:00,65.8,62.2,30.16,South,180,0.0,0.0,88,0.00,,,0.00,WeatherCatV1.12B45,2013-01-15 03:54:00,
2013-01-14 22:59:00,65.8,62.2,30.16,South,180,0.0,0.0,88,0.00,,,0.00,WeatherCatV1.12B45,2013-01-15 03:59:00,
2013-01-14 23:04:00,65.8,62.2,30.16,SSW,202,0.0,0.0,88,0.00,,,0.00,WeatherCatV1.12B45,2013-01-15 04:04:00,
2013-01-14 23:09:00,65.8,62.2,30.16,SSW,202,0.0,0.0,88,0.00,,,0.00,WeatherCatV1.12B45,2013-01-15 04:09:00,
2013-01-14 23:14:00,65.8,62.2,30.16,South,180,0.0,0.0,88,0.00,,,0.00,WeatherCatV1.12B45,2013-01-15 04:14:00,
2013-01-14 23:19:00,65.7,62.0,30.16,SSW,202,0.0,0.0,88,0.00,,,0.00,WeatherCatV1.12B45,2013-01-15 04:19:00,
2013-01-14 23:24:00,65.7,62.0,30.16,South,180,0.0,0.0,88,0.00,,,0.00,WeatherCatV1.12B45,2013-01-15 04:24:00,
2013-01-14 23:29:00,65.5,61.8,30.16,South,180,0.0,0.0,88,0.00,,,0.00,WeatherCatV1.12B45,2013-01-15 04:29:00,
2013-01-14 23:34:00,65.5,61.8,30.16,South,180,0.0,0.0,88,0.00,,,0.00,WeatherCatV1.12B45,2013-01-15 04:34:00,
2013-01-14 23:39:00,65.5,61.8,30.16,South,180,0.0,0.0,88,0.00,,,0.00,WeatherCatV1.12B45,2013-01-15 04:39:00,
2013-01-14 23:44:00,65.3,61.7,30.16,South,180,0.0,0.0,88,0.00,,,0.00,WeatherCatV1.12B45,2013-01-15 04:44:00,
2013-01-14 23:49:00,65.3,61.7,30.16,South,180,0.0,0.0,88,0.00,,,0.00,WeatherCatV1.12B45,2013-01-15 04:49:00,
2013-01-14 23:54:00,65.1,61.5,30.16,South,180,0.0,0.0,88,0.00,,,0.00,WeatherCatV1.12B45,2013-01-15 04:54:00,
2013-01-14 23:59:00,65.1,61.5,30.16,South,180,0.0,0.0,88,0.00,,,0.00,WeatherCatV1.12B45,2013-01-15 04:59:00,